Time;durP1;ratioP1;P1;durP2;ratioP2;P2;SDS_P1;SDS_P2;PMS_P1;PMS_P2;Temp;Humidity;BMP_temperature;BMP_pressure;BME280_temperature;BME280_humidity;BME280_pressure;Samples;Min_cycle;Max_cycle;Signal;HPM_P1;HPM_P2
2023/01/25 00:00:46;;;;;;;130.60;46.08;;;1.20;99.90;;;;;;6206473;23;20019;-77
2023/01/25 00:03:13;;;;;;;133.23;45.03;;;1.20;99.90;;;;;;6185766;23;20489;-76
2023/01/25 00:05:40;;;;;;;138.05;45.63;;;1.10;99.90;;;;;;6212821;23;20028;-77
2023/01/25 00:08:08;;;;;;;122.95;43.63;;;1.10;99.90;;;;;;6207346;23;20059;-76
2023/01/25 00:10:35;;;;;;;136.63;46.42;;;1.10;99.90;;;;;;6208454;23;20027;-77
2023/01/25 00:13:02;;;;;;;125.82;48.92;;;1.10;99.90;;;;;;6208152;23;20095;-77
2023/01/25 00:15:29;;;;;;;121.63;46.42;;;1.00;99.90;;;;;;6212945;23;20020;-77
2023/01/25 00:17:56;;;;;;;129.02;45.00;;;1.00;99.90;;;;;;6213271;23;20016;-77
2023/01/25 00:20:23;;;;;;;118.93;42.70;;;1.00;99.90;;;;;;6209930;23;20342;-77
2023/01/25 00:22:51;;;;;;;114.45;41.90;;;1.10;99.90;;;;;;6210949;23;20025;-77
2023/01/25 00:25:18;;;;;;;114.25;41.67;;;1.00;99.90;;;;;;6211586;23;20020;-77
2023/01/25 00:27:45;;;;;;;109.63;39.42;;;1.00;99.90;;;;;;6186357;23;20410;-77
2023/01/25 00:30:15;;;;;;;118.20;40.40;;;1.00;99.90;;;;;;6210936;23;20031;-77
2023/01/25 00:32:56;;;;;;;107.93;38.38;;;1.00;99.90;;;;;;6212398;23;20463;-77
2023/01/25 00:35:31;;;;;;;116.22;38.75;;;1.00;99.90;;;;;;6186154;23;20043;-77
2023/01/25 00:38:01;;;;;;;113.57;41.25;;;1.00;99.90;;;;;;6211063;23;20072;-76
2023/01/25 00:40:28;;;;;;;113.28;40.72;;;1.00;99.90;;;;;;6211348;23;20430;-76
2023/01/25 00:42:59;;;;;;;112.10;40.83;;;1.00;99.90;;;;;;6186900;23;20095;-76
2023/01/25 00:45:26;;;;;;;108.10;37.72;;;0.90;99.90;;;;;;6186502;23;20025;-76
2023/01/25 00:47:55;;;;;;;98.10;36.53;;;1.00;99.90;;;;;;6211401;23;20448;-78
2023/01/25 00:50:22;;;;;;;99.07;36.25;;;0.90;99.90;;;;;;6209582;23;20360;-77
2023/01/25 00:52:49;;;;;;;106.90;38.28;;;0.80;99.90;;;;;;6186730;23;20062;-77
2023/01/25 00:55:16;;;;;;;112.07;37.17;;;0.80;99.90;;;;;;6211592;23;20031;-76
2023/01/25 00:57:44;;;;;;;108.22;37.13;;;0.80;99.90;;;;;;6186584;23;20024;-77
2023/01/25 01:00:11;;;;;;;104.60;36.80;;;0.80;99.90;;;;;;6186764;23;20052;-77
2023/01/25 01:02:39;;;;;;;112.00;38.40;;;0.80;99.90;;;;;;6186664;23;20020;-76
2023/01/25 01:05:06;;;;;;;98.28;36.00;;;0.80;99.90;;;;;;6209471;23;20040;-77
2023/01/25 01:07:36;;;;;;;101.32;34.33;;;0.80;99.90;;;;;;6184980;23;20086;-77
2023/01/25 01:10:04;;;;;;;110.22;37.40;;;0.80;99.90;;;;;;6186327;23;20103;-77
2023/01/25 01:12:31;;;;;;;97.72;32.75;;;0.80;99.90;;;;;;6186393;23;20047;-77
2023/01/25 01:14:58;;;;;;;94.93;33.58;;;0.80;99.90;;;;;;6186475;23;20031;-77
2023/01/25 01:17:25;;;;;;;86.50;31.90;;;0.80;99.90;;;;;;6186634;23;20456;-77
2023/01/25 01:19:52;;;;;;;89.32;32.42;;;0.80;99.90;;;;;;6186910;23;20070;-77
2023/01/25 01:22:19;;;;;;;86.47;30.98;;;0.80;99.90;;;;;;6186412;23;20334;-77
2023/01/25 01:24:48;;;;;;;84.70;28.98;;;0.70;99.90;;;;;;6213225;23;20020;-77
2023/01/25 01:27:15;;;;;;;86.93;31.38;;;0.70;99.90;;;;;;6186026;23;20031;-78
2023/01/25 01:29:42;;;;;;;79.55;29.80;;;0.70;99.90;;;;;;6211268;23;20055;-78
2023/01/25 01:32:09;;;;;;;75.85;28.10;;;0.70;99.90;;;;;;6186035;23;20464;-78
2023/01/25 01:34:36;;;;;;;81.65;27.13;;;0.70;99.90;;;;;;6210483;23;20020;-78
2023/01/25 01:37:04;;;;;;;75.90;26.17;;;0.70;99.90;;;;;;6211311;23;20095;-77
2023/01/25 01:39:31;;;;;;;89.45;27.98;;;0.70;99.90;;;;;;6186770;23;20028;-79
2023/01/25 01:41:58;;;;;;;68.30;22.92;;;0.70;99.90;;;;;;6209254;23;20048;-78
2023/01/25 01:44:46;;;;;;;72.82;23.88;;;0.60;99.90;;;;;;6210078;23;20024;-78
2023/01/25 01:47:25;;;;;;;75.57;23.20;;;0.70;99.90;;;;;;6210243;23;20025;-78
2023/01/25 01:50:03;;;;;;;64.68;21.33;;;0.70;99.90;;;;;;6186639;23;20016;-78
2023/01/25 01:52:36;;;;;;;64.40;22.80;;;0.70;99.90;;;;;;6210564;23;20042;-78
2023/01/25 01:55:08;;;;;;;56.67;19.13;;;0.60;99.90;;;;;;6185602;23;20063;-78
2023/01/25 01:57:53;;;;;;;65.93;19.40;;;0.70;99.90;;;;;;6185750;23;20016;-78
2023/01/25 02:00:29;;;;;;;56.42;17.73;;;0.70;99.90;;;;;;6210268;23;20256;-78
2023/01/25 02:02:58;;;;;;;51.15;17.63;;;0.70;99.90;;;;;;6209346;23;20091;-78
2023/01/25 02:05:41;;;;;;;53.45;16.58;;;0.70;99.90;;;;;;6185686;23;20487;-78
2023/01/25 02:08:12;;;;;;;62.70;17.45;;;0.60;99.90;;;;;;6210561;23;20071;-78
2023/01/25 02:10:41;;;;;;;54.90;15.52;;;0.60;99.90;;;;;;6185367;23;20051;-78
2023/01/25 02:13:09;;;;;;;53.35;15.88;;;0.60;99.90;;;;;;6211574;23;20048;-78
2023/01/25 02:15:43;;;;;;;49.50;15.27;;;0.60;99.90;;;;;;6211158;23;20021;-78
2023/01/25 02:18:12;;;;;;;46.50;15.10;;;0.60;99.90;;;;;;6211207;23;20020;-78
2023/01/25 02:20:42;;;;;;;48.90;13.65;;;0.60;99.90;;;;;;6211064;23;20020;-78
2023/01/25 02:23:24;;;;;;;41.13;12.10;;;0.50;99.90;;;;;;6185725;23;20048;-78
2023/01/25 02:25:51;;;;;;;38.30;11.63;;;0.60;99.90;;;;;;6211765;23;20436;-78
2023/01/25 02:28:45;;;;;;;41.00;10.23;;;0.60;99.90;;;;;;6185882;23;20119;-78
2023/01/25 02:31:13;;;;;;;33.78;9.25;;;0.60;99.90;;;;;;6210564;23;20025;-78
2023/01/25 02:33:40;;;;;;;34.47;10.27;;;0.60;99.90;;;;;;6186223;23;20482;-77
2023/01/25 02:36:12;;;;;;;39.92;10.18;;;0.70;99.90;;;;;;6211344;23;20031;-77
2023/01/25 02:39:09;;;;;;;33.17;9.43;;;0.60;99.90;;;;;;6185823;23;20078;-78
2023/01/25 02:41:42;;;;;;;36.47;10.85;;;0.70;99.90;;;;;;6196678;23;20055;-77
2023/01/25 02:44:30;;;;;;;42.53;11.25;;;0.70;99.90;;;;;;6210228;23;20349;-77
2023/01/25 02:47:02;;;;;;;39.88;14.20;;;0.60;99.90;;;;;;6188433;23;20056;-77
2023/01/25 02:49:30;;;;;;;39.28;12.70;;;0.60;99.90;;;;;;6186704;23;20020;-77
2023/01/25 02:51:57;;;;;;;34.90;11.93;;;0.60;99.90;;;;;;6187086;23;20021;-77
2023/01/25 02:54:25;;;;;;;46.17;13.63;;;0.70;99.90;;;;;;6187643;23;20132;-78
2023/01/25 02:56:53;;;;;;;37.55;10.70;;;0.60;99.90;;;;;;6213449;23;20044;-78
2023/01/25 02:59:22;;;;;;;43.75;10.80;;;0.60;99.90;;;;;;6188310;23;20020;-79
2023/01/25 03:01:53;;;;;;;37.67;11.15;;;0.60;99.90;;;;;;6187985;23;20046;-78
2023/01/25 03:04:21;;;;;;;41.47;10.38;;;0.60;99.90;;;;;;6211055;23;20029;-78
2023/01/25 03:06:49;;;;;;;35.88;10.23;;;0.60;99.90;;;;;;6211723;23;20012;-78
2023/01/25 03:09:17;;;;;;;42.17;9.65;;;0.60;99.90;;;;;;6188200;23;20020;-78
2023/01/25 03:11:47;;;;;;;33.78;9.15;;;0.60;99.90;;;;;;6212659;23;20020;-78
2023/01/25 03:14:15;;;;;;;34.05;10.18;;;0.60;99.90;;;;;;6188188;23;20055;-78
2023/01/25 03:16:42;;;;;;;42.88;9.60;;;0.60;99.90;;;;;;6212010;23;20024;-78
2023/01/25 03:19:10;;;;;;;35.75;9.55;;;0.60;99.90;;;;;;6187008;23;20021;-78
2023/01/25 03:21:39;;;;;;;36.00;11.60;;;0.50;99.90;;;;;;6211688;23;20100;-78
2023/01/25 03:24:08;;;;;;;49.92;11.77;;;0.50;99.90;;;;;;6211539;23;20016;-78
2023/01/25 03:29:51;;;;;;;46.78;13.93;;;0.50;99.90;;;;;;6209389;23;20040;-78
2023/01/25 03:32:21;;;;;;;44.60;11.90;;;0.60;99.90;;;;;;6188330;23;20348;-78
2023/01/25 03:34:49;;;;;;;44.13;11.30;;;0.50;99.90;;;;;;6186361;23;20337;-79
2023/01/25 03:37:18;;;;;;;41.25;11.23;;;0.60;99.90;;;;;;6188473;23;20399;-79
2023/01/25 03:39:46;;;;;;;43.90;11.95;;;0.50;99.90;;;;;;6188562;23;20104;-78
2023/01/25 03:42:14;;;;;;;33.97;9.43;;;0.60;99.90;;;;;;6211476;23;20021;-78
2023/01/25 03:44:42;;;;;;;37.20;10.73;;;0.50;99.90;;;;;;6187312;23;20033;-78
2023/01/25 03:47:09;;;;;;;37.95;10.13;;;0.60;99.90;;;;;;6210972;23;20031;-78
2023/01/25 03:49:36;;;;;;;35.72;9.70;;;0.60;99.90;;;;;;6187305;23;20020;-78
2023/01/25 03:52:05;;;;;;;34.95;10.93;;;0.60;99.90;;;;;;6212560;23;20017;-77
2023/01/25 03:54:37;;;;;;;31.77;8.07;;;0.60;99.90;;;;;;6213811;23;20039;-78
2023/01/25 03:57:06;;;;;;;35.42;9.85;;;0.60;99.90;;;;;;6188906;23;20044;-78
2023/01/25 03:59:42;;;;;;;28.38;8.90;;;0.60;99.90;;;;;;6190298;23;20044;-78
2023/01/25 04:02:11;;;;;;;33.65;10.27;;;0.60;99.90;;;;;;6188362;23;20027;-78
2023/01/25 04:04:38;;;;;;;34.33;9.25;;;0.70;99.90;;;;;;6212380;23;20020;-78
2023/01/25 04:07:07;;;;;;;29.05;9.48;;;0.70;99.90;;;;;;6188419;23;20022;-78
2023/01/25 04:09:36;;;;;;;36.72;10.60;;;0.70;99.90;;;;;;6214289;23;20023;-78
2023/01/25 04:12:04;;;;;;;44.38;12.48;;;0.70;99.90;;;;;;6212819;23;20028;-78
2023/01/25 04:14:33;;;;;;;37.97;9.98;;;0.70;99.90;;;;;;6212117;23;20063;-78
2023/01/25 04:17:16;;;;;;;39.00;11.07;;;0.80;99.90;;;;;;6211061;23;20462;-78
2023/01/25 04:19:49;;;;;;;44.13;10.75;;;0.80;99.90;;;;;;6187606;23;20063;-78
2023/01/25 04:22:19;;;;;;;44.25;11.93;;;0.80;99.90;;;;;;6211263;23;20043;-78
2023/01/25 04:24:49;;;;;;;39.75;11.80;;;0.80;99.90;;;;;;6212346;23;20039;-78
2023/01/25 04:27:17;;;;;;;43.88;13.70;;;0.90;99.90;;;;;;6212046;23;20017;-78
2023/01/25 04:29:53;;;;;;;47.35;12.90;;;0.80;99.90;;;;;;6189278;23;20024;-78
2023/01/25 04:32:23;;;;;;;44.90;13.57;;;0.80;99.90;;;;;;6187592;23;20385;-78
2023/01/25 04:34:50;;;;;;;51.30;12.57;;;0.80;99.90;;;;;;6211788;23;20361;-78
2023/01/25 04:37:21;;;;;;;51.20;13.45;;;0.90;99.90;;;;;;6211228;23;20070;-78
2023/01/25 04:39:55;;;;;;;47.42;13.48;;;0.90;99.90;;;;;;6188669;23;20017;-78
2023/01/25 04:42:23;;;;;;;57.08;14.25;;;0.90;99.90;;;;;;6211639;23;20075;-78
2023/01/25 04:44:54;;;;;;;46.47;13.05;;;0.90;99.90;;;;;;6211686;23;20019;-78
2023/01/25 04:47:21;;;;;;;41.75;12.18;;;0.90;99.90;;;;;;6187531;23;20135;-78
2023/01/25 04:49:48;;;;;;;50.45;12.32;;;0.90;99.90;;;;;;6187090;23;20028;-78
2023/01/25 04:52:19;;;;;;;45.22;11.07;;;1.00;99.90;;;;;;6189428;23;20021;-78
2023/01/25 04:54:46;;;;;;;36.65;11.32;;;1.00;99.90;;;;;;6189234;23;20027;-78
2023/01/25 04:57:13;;;;;;;40.20;10.70;;;0.90;99.90;;;;;;6194411;23;20028;-78
2023/01/25 04:59:49;;;;;;;36.70;11.02;;;1.00;99.90;;;;;;6223216;23;20025;-78
2023/01/25 05:02:20;;;;;;;37.42;11.65;;;1.00;99.90;;;;;;6196103;23;20075;-78
2023/01/25 05:04:49;;;;;;;35.50;10.90;;;1.00;99.90;;;;;;6198585;23;20024;-78
2023/01/25 05:07:19;;;;;;;37.95;11.68;;;0.90;99.90;;;;;;6219845;23;20028;-78
2023/01/25 05:09:49;;;;;;;40.33;10.85;;;1.00;99.90;;;;;;6192140;23;20020;-78
2023/01/25 05:12:18;;;;;;;45.15;12.75;;;0.10;99.90;;;;;;6188632;23;20021;-78
2023/01/25 05:14:59;;;;;;;48.85;13.32;;;1.00;99.90;;;;;;6191865;23;20024;-78
2023/01/25 05:17:27;;;;;;;46.03;14.13;;;1.50;99.90;;;;;;6212807;23;20024;-78
2023/01/25 05:19:55;;;;;;;49.78;12.85;;;1.10;99.90;;;;;;6211116;23;20020;-80
2023/01/25 05:22:24;;;;;;;41.15;11.27;;;1.00;99.90;;;;;;6188389;23;20036;-78
2023/01/25 05:24:52;;;;;;;45.55;12.02;;;1.00;99.90;;;;;;6214670;23;20102;-78
2023/01/25 05:27:22;;;;;;;38.38;11.23;;;1.10;99.90;;;;;;6213634;23;20018;-79
2023/01/25 05:29:55;;;;;;;35.83;11.15;;;1.00;99.90;;;;;;6227062;23;20365;-79
2023/01/25 05:32:49;;;;;;;34.47;11.00;;;1.50;99.90;;;;;;6220067;23;20424;-79
2023/01/25 05:35:18;;;;;;;40.13;12.00;;;1.00;99.90;;;;;;6192951;23;20348;-79
2023/01/25 05:37:53;;;;;;;39.67;12.88;;;1.10;99.90;;;;;;6220783;23;20040;-79
2023/01/25 05:40:23;;;;;;;31.65;11.65;;;1.00;99.90;;;;;;6219071;23;20456;-79
2023/01/25 05:42:55;;;;;;;40.70;10.98;;;1.00;99.90;;;;;;6195608;23;20405;-80
2023/01/25 05:45:23;;;;;;;37.03;11.23;;;1.10;99.90;;;;;;6190433;23;20031;-79
2023/01/25 05:47:54;;;;;;;35.40;11.40;;;1.10;99.90;;;;;;6188923;23;20464;-79
2023/01/25 05:50:22;;;;;;;29.80;8.75;;;1.10;99.90;;;;;;6214840;23;20044;-79
2023/01/25 05:53:06;;;;;;;36.75;10.13;;;1.10;99.90;;;;;;6216359;23;20377;-79
2023/01/25 05:55:35;;;;;;;35.65;11.00;;;1.00;99.90;;;;;;6218046;23;20040;-79
2023/01/25 05:58:07;;;;;;;34.75;10.82;;;1.10;99.90;;;;;;6214940;23;20039;-79
2023/01/25 06:00:35;;;;;;;45.45;14.45;;;1.10;99.90;;;;;;6191225;23;20396;-79
2023/01/25 06:03:03;;;;;;;72.07;22.73;;;1.10;99.90;;;;;;6187820;23;20079;-79
2023/01/25 06:05:34;;;;;;;70.53;23.98;;;1.40;99.90;;;;;;6191861;23;20055;-79
2023/01/25 06:08:01;;;;;;;55.28;19.58;;;1.30;99.90;;;;;;6214195;23;20012;-79
2023/01/25 06:10:37;;;;;;;43.60;14.27;;;1.10;99.90;;;;;;6215633;23;20012;-79
2023/01/25 06:13:10;;;;;;;35.17;11.27;;;1.20;99.90;;;;;;6195551;23;20017;-79
2023/01/25 06:15:38;;;;;;;;;;;0.40;99.90;;;;;;6198461;23;20024;-79
2023/01/25 06:18:23;;;;;;;32.38;11.45;;;1.10;99.90;;;;;;6218027;23;19927;-79
2023/01/25 06:21:09;;;;;;;41.30;13.13;;;1.20;99.90;;;;;;6213499;23;20031;-79
2023/01/25 06:23:39;;;;;;;34.58;12.23;;;1.30;99.90;;;;;;6214944;23;20013;-79
2023/01/25 06:26:11;;;;;;;33.55;12.07;;;1.20;99.90;;;;;;6212385;23;20413;-79
2023/01/25 06:28:39;;;;;;;32.40;12.32;;;1.40;99.90;;;;;;6190447;23;20024;-79
2023/01/25 06:31:12;;;;;;;35.65;11.75;;;1.10;99.90;;;;;;6190118;23;20024;-79
2023/01/25 06:33:46;;;;;;;37.28;12.50;;;1.40;99.90;;;;;;6192434;23;20478;-79
2023/01/25 06:36:16;;;;;;;44.70;18.85;;;1.30;99.90;;;;;;6189783;23;20368;-79
2023/01/25 06:38:48;;;;;;;39.08;13.93;;;1.10;99.90;;;;;;6189757;23;20017;-79
2023/01/25 06:41:16;;;;;;;29.35;11.30;;;1.30;99.90;;;;;;6221411;23;20023;-79
2023/01/25 06:43:44;;;;;;;29.95;9.98;;;1.40;99.90;;;;;;6223285;23;20028;-80
2023/01/25 06:46:19;;;;;;;26.35;10.75;;;1.30;99.90;;;;;;6219867;23;20330;-79
2023/01/25 06:48:52;;;;;;;29.92;10.85;;;1.40;99.90;;;;;;6197457;23;20436;-79
2023/01/25 06:51:20;;;;;;;28.08;11.43;;;1.50;99.90;;;;;;6194967;23;20024;-79
2023/01/25 06:53:50;;;;;;;31.02;12.82;;;1.30;99.90;;;;;;6217872;23;20016;-79
2023/01/25 06:56:20;;;;;;;27.13;11.48;;;1.20;99.90;;;;;;6193393;23;20115;-79
2023/01/25 06:58:49;;;;;;;31.23;10.43;;;1.40;99.90;;;;;;6216936;23;20494;-79
2023/01/25 07:01:25;;;;;;;25.83;10.57;;;1.20;99.90;;;;;;6209673;23;20050;-79
2023/01/25 07:03:56;;;;;;;31.73;11.38;;;1.40;99.90;;;;;;6210583;23;20021;-79
2023/01/25 07:06:25;;;;;;;29.50;11.20;;;1.40;99.90;;;;;;6185844;23;20024;-79
2023/01/25 07:08:55;;;;;;;31.55;10.73;;;1.40;99.90;;;;;;6209549;23;20024;-79
2023/01/25 07:11:23;;;;;;;30.30;11.63;;;1.40;99.90;;;;;;6208578;23;20021;-79
2023/01/25 07:16:53;;;;;;;37.20;12.55;;;1.50;99.90;;;;;;6120964;23;20018;-79
2023/01/25 07:19:20;;;;;;;29.13;13.30;;;1.60;99.90;;;;;;6073206;23;20074;-79
2023/01/25 07:21:49;;;;;;;36.83;11.93;;;1.60;99.90;;;;;;6073780;23;20022;-79
2023/01/25 07:24:19;;;;;;;31.08;11.52;;;1.60;99.90;;;;;;6073664;23;20023;-79
2023/01/25 07:26:48;;;;;;;38.58;13.68;;;1.60;99.90;;;;;;6072261;23;20078;-79
2023/01/25 07:29:16;;;;;;;28.98;11.00;;;1.70;99.90;;;;;;6071302;23;20019;-79
2023/01/25 07:31:43;;;;;;;30.40;11.13;;;1.70;99.90;;;;;;6071764;23;20054;-79
2023/01/25 07:34:12;;;;;;;38.17;14.70;;;1.70;99.90;;;;;;6072252;23;20030;-79
2023/01/25 07:36:42;;;;;;;37.75;11.75;;;1.70;99.90;;;;;;6072551;23;20056;-79
2023/01/25 07:39:10;;;;;;;31.88;11.13;;;1.80;99.90;;;;;;6060596;23;20053;-79
2023/01/25 07:41:39;;;;;;;29.15;10.02;;;1.70;99.90;;;;;;6089884;23;20022;-79
2023/01/25 07:44:11;;;;;;;26.10;10.32;;;1.70;99.90;;;;;;6067941;23;20317;-78
2023/01/25 07:46:45;;;;;;;33.15;12.15;;;1.80;99.90;;;;;;6068706;23;20042;-79
2023/01/25 07:49:12;;;;;;;30.48;11.75;;;1.80;99.90;;;;;;6067471;23;20473;-79
2023/01/25 07:51:39;;;;;;;28.15;9.75;;;1.80;99.90;;;;;;6066523;23;20026;-79
2023/01/25 07:54:09;;;;;;;26.05;10.63;;;1.80;99.90;;;;;;6070397;23;20026;-79
2023/01/25 07:56:39;;;;;;;32.53;11.90;;;1.90;99.90;;;;;;6066733;23;20531;-79
2023/01/25 07:59:07;;;;;;;24.67;10.48;;;1.90;99.90;;;;;;6068379;23;20097;-79
2023/01/25 08:01:35;;;;;;;28.25;10.38;;;1.90;99.90;;;;;;6069844;23;20014;-79
2023/01/25 08:04:04;;;;;;;32.85;11.65;;;1.90;99.90;;;;;;6064874;23;20058;-79
2023/01/25 08:06:37;;;;;;;27.13;11.52;;;1.90;99.90;;;;;;6067998;23;20025;-79
2023/01/25 08:09:09;;;;;;;31.45;12.07;;;1.90;99.90;;;;;;6068321;23;20030;-78
2023/01/25 08:11:37;;;;;;;31.92;12.02;;;2.00;99.90;;;;;;6068328;23;20018;-78
2023/01/25 08:14:04;;;;;;;33.42;12.30;;;2.00;99.90;;;;;;6067752;23;20042;-79
2023/01/25 08:16:31;;;;;;;31.00;12.20;;;2.00;99.90;;;;;;6062664;23;20029;-78
2023/01/25 08:19:00;;;;;;;31.75;11.70;;;2.10;99.90;;;;;;6060625;23;20539;-78
2023/01/25 08:21:29;;;;;;;32.47;11.40;;;2.10;99.90;;;;;;6062086;23;20015;-78
2023/01/25 08:23:58;;;;;;;28.45;11.60;;;2.10;99.90;;;;;;6065204;23;20514;-78
2023/01/25 08:26:26;;;;;;;34.10;11.35;;;2.20;99.90;;;;;;6064424;23;20031;-78
2023/01/25 08:28:54;;;;;;;29.08;11.95;;;2.20;99.90;;;;;;6063830;23;20023;-78
2023/01/25 08:31:24;;;;;;;28.45;12.15;;;2.20;99.90;;;;;;6064202;23;20049;-78
2023/01/25 08:33:52;;;;;;;30.60;12.35;;;2.20;99.90;;;;;;6064538;23;20042;-78
2023/01/25 08:36:20;;;;;;;28.25;11.98;;;2.20;99.90;;;;;;6061382;23;20439;-78
2023/01/25 08:38:47;;;;;;;25.70;10.52;;;2.20;99.90;;;;;;6062692;23;20094;-78
2023/01/25 08:41:18;;;;;;;30.75;11.60;;;2.30;99.90;;;;;;6064516;23;20125;-78
2023/01/25 08:43:46;;;;;;;35.15;13.00;;;2.30;99.90;;;;;;6061746;23;20025;-78
2023/01/25 08:46:15;;;;;;;26.60;10.45;;;2.30;99.90;;;;;;6039236;23;20026;-78
2023/01/25 08:48:42;;;;;;;26.25;10.32;;;2.30;99.90;;;;;;6063938;23;20094;-78
2023/01/25 08:51:15;;;;;;;31.77;12.35;;;2.30;99.90;;;;;;6063801;23;20015;-78
2023/01/25 08:53:42;;;;;;;27.25;9.70;;;2.40;99.90;;;;;;6065444;23;20023;-77
2023/01/25 08:56:12;;;;;;;24.42;10.23;;;2.40;99.90;;;;;;6038943;23;20031;-78
2023/01/25 08:58:41;;;;;;;28.80;10.48;;;2.40;99.90;;;;;;6038406;23;20027;-78
2023/01/25 09:01:10;;;;;;;25.00;10.23;;;2.50;99.90;;;;;;6037725;23;20022;-78
2023/01/25 09:03:40;;;;;;;27.45;9.88;;;2.50;99.90;;;;;;6061786;23;20038;-78
2023/01/25 09:06:09;;;;;;;30.08;10.70;;;2.40;99.90;;;;;;6059783;23;20106;-78
2023/01/25 09:08:37;;;;;;;23.92;10.40;;;2.40;99.90;;;;;;6060884;23;20022;-78
2023/01/25 09:11:08;;;;;;;26.20;10.30;;;2.50;99.90;;;;;;6036775;23;20031;-78
2023/01/25 09:13:35;;;;;;;22.23;9.43;;;2.50;99.90;;;;;;6040649;23;20443;-78
2023/01/25 09:16:05;;;;;;;24.88;8.25;;;2.60;99.90;;;;;;6063619;23;20030;-79
2023/01/25 09:18:35;;;;;;;23.10;8.68;;;2.50;99.90;;;;;;6040543;23;20467;-78
2023/01/25 09:21:21;;;;;;;24.95;8.70;;;2.60;99.90;;;;;;6040415;23;20050;-78
2023/01/25 09:23:52;;;;;;;23.65;8.82;;;2.60;99.90;;;;;;6066174;23;20019;-78
2023/01/25 09:26:41;;;;;;;22.38;8.32;;;2.70;99.90;;;;;;6077047;23;20002;-78
2023/01/25 09:29:21;;;;;;;26.52;9.20;;;2.70;99.90;;;;;;6066259;23;20026;-77
2023/01/25 09:31:49;;;;;;;23.63;9.43;;;2.70;99.90;;;;;;6065747;23;20045;-77
2023/01/25 09:34:39;;;;;;;28.00;10.05;;;2.70;99.90;;;;;;6069731;23;20030;-77
2023/01/25 09:37:06;;;;;;;24.75;9.43;;;2.70;99.90;;;;;;6063577;23;20026;-77
2023/01/25 09:39:33;;;;;;;21.27;7.93;;;2.80;99.90;;;;;;6059790;23;20015;-78
2023/01/25 09:42:31;;;;;;;23.65;7.05;;;2.80;99.90;;;;;;6056579;23;20027;-77
2023/01/25 09:45:15;;;;;;;19.58;7.30;;;2.90;99.90;;;;;;6053935;23;20022;-77
2023/01/25 09:47:54;;;;;;;21.83;9.25;;;2.90;99.90;;;;;;6042535;23;20478;-77
2023/01/25 09:50:38;;;;;;;19.73;7.40;;;2.90;99.90;;;;;;6064399;23;20038;-78
2023/01/25 09:53:14;;;;;;;19.20;6.63;;;2.90;99.90;;;;;;6063578;23;20051;-78
2023/01/25 09:55:41;;;;;;;22.30;8.00;;;2.90;99.90;;;;;;6063372;23;20027;-78
2023/01/25 09:58:23;;;;;;;24.77;8.68;;;3.00;99.90;;;;;;6064498;23;20019;-79
2023/01/25 10:01:01;;;;;;;17.85;7.53;;;3.00;99.90;;;;;;6062827;23;20038;-79
2023/01/25 10:03:41;;;;;;;19.42;8.38;;;3.00;99.90;;;;;;6064112;23;20066;-78
2023/01/25 10:06:12;;;;;;;22.75;8.18;;;3.00;99.90;;;;;;6061183;23;20026;-78
2023/01/25 10:09:07;;;;;;;19.80;6.90;;;3.00;99.90;;;;;;6059455;23;20085;-79
2023/01/25 10:11:37;;;;;;;20.70;7.53;;;3.00;99.90;;;;;;6038725;23;20439;-79
2023/01/25 10:14:12;;;;;;;15.00;5.20;;;3.00;99.90;;;;;;6061211;23;20395;-78
2023/01/25 10:16:45;;;;;;;19.65;7.97;;;3.00;99.90;;;;;;6038850;23;20023;-78
2023/01/25 10:19:38;;;;;;;18.08;7.35;;;3.00;99.90;;;;;;6037148;23;20109;-79
2023/01/25 10:22:18;;;;;;;16.30;6.93;;;3.00;99.90;;;;;;6060957;23;20023;-78
2023/01/25 10:25:17;;;;;;;19.67;6.97;;;3.00;99.90;;;;;;6038664;23;20371;-78
2023/01/25 10:27:55;;;;;;;19.05;7.10;;;3.10;99.90;;;;;;6063905;23;20139;-78
2023/01/25 10:30:27;;;;;;;23.38;9.05;;;3.10;99.90;;;;;;6064820;23;20054;-78
2023/01/25 10:32:59;;;;;;;19.25;7.35;;;3.10;99.90;;;;;;6063144;23;20030;-79
2023/01/25 10:35:35;;;;;;;24.40;8.00;;;3.20;99.90;;;;;;6063402;23;20213;-79
2023/01/25 10:38:25;;;;;;;27.35;11.73;;;3.10;99.90;;;;;;6040881;23;20051;-79
2023/01/25 10:40:58;;;;;;;38.13;19.85;;;3.10;99.90;;;;;;6059126;23;20026;-79
2023/01/25 10:43:26;;;;;;;23.38;10.68;;;3.20;99.90;;;;;;6059654;23;20030;-78
2023/01/25 10:45:53;;;;;;;22.60;9.07;;;3.20;99.90;;;;;;6060210;23;20023;-79
2023/01/25 10:48:26;;;;;;;20.25;8.48;;;3.20;99.90;;;;;;6059262;23;20035;-78
2023/01/25 10:50:56;;;;;;;20.50;8.55;;;3.20;99.90;;;;;;6061420;23;20027;-78
2023/01/25 10:53:35;;;;;;;22.02;8.57;;;3.20;99.90;;;;;;6060833;23;20328;-79
2023/01/25 10:56:09;;;;;;;20.65;7.85;;;3.20;99.90;;;;;;6061395;23;20332;-78
2023/01/25 10:58:42;;;;;;;20.23;8.70;;;3.30;99.90;;;;;;6037756;23;20507;-78
2023/01/25 11:01:26;;;;;;;19.05;8.93;;;3.30;99.90;;;;;;6063712;23;20043;-78
2023/01/25 11:03:54;;;;;;;22.88;11.60;;;3.30;99.90;;;;;;6065874;23;20022;-78
2023/01/25 11:06:36;;;;;;;20.70;9.57;;;3.30;99.90;;;;;;6065335;23;20443;-79
2023/01/25 11:09:21;;;;;;;19.58;8.38;;;3.30;99.90;;;;;;6042240;23;20026;-79
2023/01/25 11:11:55;;;;;;;23.60;10.10;;;3.20;99.90;;;;;;6065361;23;20023;-79
2023/01/25 11:14:28;;;;;;;21.85;9.05;;;3.30;99.90;;;;;;6066118;23;20026;-78
2023/01/25 11:16:56;;;;;;;18.73;7.45;;;3.30;99.90;;;;;;6066232;23;20018;-78
2023/01/25 11:19:34;;;;;;;23.05;9.38;;;3.30;99.90;;;;;;6064557;23;20413;-78
2023/01/25 11:22:05;;;;;;;22.88;8.68;;;3.30;99.90;;;;;;6062815;23;20049;-78
2023/01/25 11:24:34;;;;;;;21.35;8.20;;;3.30;99.90;;;;;;6064587;23;20075;-78
2023/01/25 11:27:19;;;;;;;23.25;7.95;;;3.30;99.90;;;;;;6063678;23;20023;-78
2023/01/25 11:30:08;;;;;;;23.58;10.63;;;3.30;99.90;;;;;;6063740;23;20053;-78
2023/01/25 11:32:39;;;;;;;20.92;8.15;;;3.40;99.90;;;;;;6067367;23;20026;-79
2023/01/25 11:35:16;;;;;;;22.83;8.18;;;3.40;99.90;;;;;;6059937;23;20034;-77
2023/01/25 11:38:10;;;;;;;19.30;8.50;;;3.40;99.90;;;;;;6062514;23;20138;-78
2023/01/25 11:40:45;;;;;;;23.63;9.77;;;3.40;99.90;;;;;;6056938;23;20066;-78
2023/01/25 11:43:51;;;;;;;16.45;7.30;;;3.40;99.90;;;;;;6064460;23;20019;-78
2023/01/25 11:46:33;;;;;;;20.08;7.25;;;3.50;99.90;;;;;;6001973;23;20416;-78
2023/01/25 11:49:28;;;;;;;20.23;9.53;;;3.50;99.90;;;;;;6040755;23;20019;-78
2023/01/25 11:52:08;;;;;;;19.63;8.25;;;3.50;99.90;;;;;;6059747;23;20053;-79
2023/01/25 11:54:44;;;;;;;22.98;8.02;;;3.60;99.90;;;;;;6063361;23;20467;-79
2023/01/25 11:57:34;;;;;;;20.08;8.25;;;3.60;99.90;;;;;;6065499;23;20025;-78
2023/01/25 12:00:26;;;;;;;21.77;8.35;;;3.60;99.90;;;;;;6049148;23;20049;-78
2023/01/25 12:03:05;;;;;;;17.83;6.55;;;3.60;99.90;;;;;;6065524;23;20339;-78
2023/01/25 12:05:59;;;;;;;17.63;6.93;;;3.60;99.90;;;;;;6040931;23;20466;-78
2023/01/25 12:08:51;;;;;;;18.38;7.00;;;3.70;99.90;;;;;;6064804;23;20027;-78
2023/01/25 12:11:39;;;;;;;16.23;6.25;;;3.80;99.90;;;;;;6063104;23;20023;-78
2023/01/25 12:14:18;;;;;;;15.73;7.03;;;3.80;99.90;;;;;;6064038;23;20041;-78
2023/01/25 12:17:22;;;;;;;17.67;6.78;;;3.80;99.90;;;;;;6066353;23;20101;-79
2023/01/25 12:20:05;;;;;;;34.77;16.70;;;3.80;99.90;;;;;;6067548;23;20357;-79
2023/01/25 12:22:41;;;;;;;15.63;7.43;;;3.80;99.90;;;;;;6068247;23;20049;-78
2023/01/25 12:25:42;;;;;;;19.50;6.78;;;3.80;99.90;;;;;;6067782;23;20089;-78
2023/01/25 12:28:44;;;;;;;16.25;6.70;;;3.90;99.90;;;;;;6064007;23;20033;-77
2023/01/25 12:31:22;;;;;;;16.20;6.85;;;3.80;99.90;;;;;;6043682;23;20078;-78
2023/01/25 12:33:57;;;;;;;15.82;6.28;;;3.90;99.90;;;;;;6044778;23;20052;-78
2023/01/25 12:36:27;;;;;;;17.73;7.18;;;3.80;99.90;;;;;;6068816;23;20023;-78
2023/01/25 12:39:18;;;;;;;20.27;7.13;;;3.90;99.90;;;;;;6068821;23;20109;-78
2023/01/25 12:42:20;;;;;;;16.98;6.03;;;3.90;99.90;;;;;;6044383;23;20117;-78
2023/01/25 12:44:57;;;;;;;16.85;5.85;;;3.80;99.90;;;;;;6066596;23;20109;-78
2023/01/25 12:47:40;;;;;;;20.88;8.05;;;3.90;99.90;;;;;;6069889;23;20018;-78
2023/01/25 12:50:24;;;;;;;16.88;6.45;;;3.90;99.90;;;;;;6070204;23;20071;-78
2023/01/25 12:53:03;;;;;;;16.50;6.05;;;3.90;99.90;;;;;;6069724;23;20073;-79
2023/01/25 12:55:31;;;;;;;22.70;8.27;;;3.90;99.90;;;;;;6068872;23;20023;-79
2023/01/25 12:58:17;;;;;;;16.58;6.85;;;3.90;99.90;;;;;;6066974;23;20026;-79
2023/01/25 13:01:27;;;;;;;19.05;7.15;;;3.90;99.90;;;;;;6069243;23;20027;-79
2023/01/25 13:04:24;;;;;;;19.08;8.00;;;3.90;99.90;;;;;;6068616;23;20053;-79
2023/01/25 13:06:54;;;;;;;14.80;6.40;;;3.90;99.90;;;;;;6068660;23;20022;-78
2023/01/25 13:09:31;;;;;;;20.95;7.13;;;3.90;99.90;;;;;;6043597;23;20050;-78
2023/01/25 13:12:02;;;;;;;21.55;8.13;;;3.90;99.90;;;;;;6067162;23;20026;-78
2023/01/25 13:14:36;;;;;;;19.50;7.65;;;3.90;99.90;;;;;;6067966;23;20026;-78
2023/01/25 13:17:20;;;;;;;20.75;7.90;;;3.90;99.90;;;;;;6069387;23;20077;-79